Time;durP1;ratioP1;P1;durP2;ratioP2;P2;SDS_P1;SDS_P2;PMS_P1;PMS_P2;Temp;Humidity;BMP_temperature;BMP_pressure;BME280_temperature;BME280_humidity;BME280_pressure;Samples;Min_cycle;Max_cycle;Signal;HPM_P1;HPM_P2
2024/03/04 00:00:06;;;;;;;31.07;21.40;;;9.50;99.90;;;;;;5022820;28;20630;-71
2024/03/04 00:02:31;;;;;;;30.33;21.87;;;9.40;99.90;;;;;;5016309;28;20214;-70
2024/03/04 00:04:57;;;;;;;30.93;22.20;;;9.40;99.90;;;;;;5010414;28;20753;-70
2024/03/04 00:07:26;;;;;;;32.10;21.23;;;9.40;99.90;;;;;;5015865;28;20259;-70
2024/03/04 00:09:52;;;;;;;35.30;23.87;;;9.40;99.90;;;;;;5015600;28;20417;-69
2024/03/04 00:12:17;;;;;;;30.10;22.43;;;9.30;99.90;;;;;;5014901;28;20853;-67
2024/03/04 00:14:43;;;;;;;27.87;20.80;;;9.30;99.90;;;;;;5014785;28;20210;-70
2024/03/04 00:17:09;;;;;;;34.67;24.13;;;9.30;99.90;;;;;;5015444;28;20298;-71
2024/03/04 00:19:36;;;;;;;34.63;23.03;;;9.30;99.90;;;;;;5007726;28;20186;-70
2024/03/04 00:22:03;;;;;;;35.50;23.60;;;9.30;99.90;;;;;;5012983;28;20317;-70
2024/03/04 00:24:29;;;;;;;32.70;22.80;;;9.30;99.90;;;;;;5015796;28;20418;-70
2024/03/04 00:26:55;;;;;;;30.40;22.33;;;9.30;99.90;;;;;;5015858;28;20534;-69
2024/03/04 00:29:21;;;;;;;36.57;24.87;;;9.30;99.90;;;;;;5015045;28;20453;-71
2024/03/04 00:31:46;;;;;;;33.10;23.10;;;9.30;99.90;;;;;;5015650;28;20261;-69
2024/03/04 00:34:12;;;;;;;35.33;24.47;;;9.30;99.90;;;;;;5009417;28;20694;-69
2024/03/04 00:36:39;;;;;;;32.23;24.13;;;9.30;99.90;;;;;;5015680;28;20487;-70
2024/03/04 00:39:05;;;;;;;36.90;25.80;;;9.20;99.90;;;;;;5015493;28;20416;-69
2024/03/04 00:41:30;;;;;;;35.37;24.40;;;9.30;99.90;;;;;;5015699;28;20466;-71
2024/03/04 00:43:56;;;;;;;39.40;25.23;;;9.20;99.90;;;;;;5015504;28;20215;-70
2024/03/04 00:46:23;;;;;;;37.63;25.57;;;9.20;99.90;;;;;;5016072;28;20438;-70
2024/03/04 00:48:49;;;;;;;39.43;27.43;;;9.20;99.90;;;;;;5011343;28;20220;-71
2024/03/04 00:51:15;;;;;;;39.27;27.37;;;9.10;99.90;;;;;;5016477;28;20741;-71
2024/03/04 00:53:46;;;;;;;45.93;31.40;;;9.10;99.90;;;;;;5015219;28;20461;-70
2024/03/04 00:56:12;;;;;;;47.73;30.07;;;9.10;99.90;;;;;;5015301;28;20442;-70
2024/03/04 00:58:40;;;;;;;47.87;29.27;;;9.00;99.90;;;;;;5015828;28;20445;-72
2024/03/04 01:01:05;;;;;;;41.50;28.47;;;9.00;99.90;;;;;;5014808;28;20492;-69
2024/03/04 01:03:34;;;;;;;43.07;28.60;;;9.00;99.90;;;;;;5010433;28;20451;-70
2024/03/04 01:06:00;;;;;;;43.70;27.57;;;8.90;99.90;;;;;;5014956;28;20499;-72
2024/03/04 01:08:26;;;;;;;43.80;27.10;;;8.90;99.90;;;;;;5015045;28;20418;-70
2024/03/04 01:10:53;;;;;;;48.50;29.23;;;8.90;99.90;;;;;;5015142;28;20219;-70
2024/03/04 01:13:19;;;;;;;46.23;30.47;;;8.90;99.90;;;;;;5015099;28;20414;-71
2024/03/04 01:15:47;;;;;;;50.30;29.13;;;8.90;99.90;;;;;;5015079;28;20434;-72
2024/03/04 01:18:14;;;;;;;42.07;27.47;;;8.80;99.90;;;;;;5009771;28;20456;-70
2024/03/04 01:20:46;;;;;;;42.53;27.30;;;8.80;99.90;;;;;;5014447;28;20461;-70
2024/03/04 01:23:12;;;;;;;44.77;28.37;;;8.90;99.90;;;;;;5004493;28;20565;-72
2024/03/04 01:25:39;;;;;;;43.07;26.70;;;8.90;99.90;;;;;;5013976;28;20448;-70
2024/03/04 01:28:05;;;;;;;44.57;25.33;;;8.90;99.90;;;;;;5014483;28;20438;-69
2024/03/04 01:30:31;;;;;;;42.67;25.43;;;8.90;99.90;;;;;;5014600;28;20459;-71
2024/03/04 01:32:56;;;;;;;38.03;26.23;;;8.80;99.90;;;;;;5014052;28;20206;-69
2024/03/04 01:35:31;;;;;;;46.07;27.10;;;8.90;99.90;;;;;;5011224;28;20191;-69
2024/03/04 01:37:58;;;;;;;43.70;27.57;;;8.80;99.90;;;;;;5015414;28;20186;-69
2024/03/04 01:40:24;;;;;;;44.97;27.97;;;8.80;99.90;;;;;;5014306;28;20417;-70
2024/03/04 01:42:50;;;;;;;48.47;26.80;;;8.80;99.90;;;;;;5014780;28;20698;-71
2024/03/04 01:45:24;;;;;;;50.20;27.40;;;8.80;99.90;;;;;;5014634;28;20413;-69
2024/03/04 01:47:56;;;;;;;43.73;26.63;;;8.80;99.90;;;;;;5015181;28;20449;-69
2024/03/04 01:50:26;;;;;;;47.97;28.47;;;8.70;99.90;;;;;;5012576;28;20873;-69
2024/03/04 01:52:54;;;;;;;42.60;26.27;;;8.70;99.90;;;;;;5010130;28;20705;-69
2024/03/04 01:55:21;;;;;;;49.33;29.77;;;8.60;99.90;;;;;;5015358;28;20414;-70
2024/03/04 01:57:48;;;;;;;47.30;26.47;;;8.60;99.90;;;;;;5014320;28;20425;-70
2024/03/04 02:00:16;;;;;;;47.67;28.27;;;8.60;99.90;;;;;;5014272;28;20469;-70
2024/03/04 02:02:42;;;;;;;48.23;28.73;;;8.60;99.90;;;;;;5013988;28;20483;-68
2024/03/04 02:05:11;;;;;;;43.73;26.43;;;8.60;99.90;;;;;;5013621;28;20422;-71
2024/03/04 02:07:38;;;;;;;47.03;29.70;;;8.60;99.90;;;;;;5013942;28;20718;-70
2024/03/04 02:10:07;;;;;;;44.43;27.83;;;8.60;99.90;;;;;;5014143;28;20410;-69
2024/03/04 02:12:34;;;;;;;55.50;30.93;;;8.60;99.90;;;;;;5013932;28;20555;-69
2024/03/04 02:15:00;;;;;;;54.20;32.80;;;8.60;99.90;;;;;;4992133;28;20489;-70
2024/03/04 02:17:30;;;;;;;50.30;30.07;;;8.60;99.90;;;;;;5011550;28;20437;-70
2024/03/04 02:20:09;;;;;;;54.13;32.00;;;8.60;99.90;;;;;;5004765;28;20589;-69
2024/03/04 02:22:35;;;;;;;46.00;27.13;;;8.60;99.90;;;;;;4988921;28;20470;-70
2024/03/04 02:25:03;;;;;;;49.50;31.40;;;8.60;99.90;;;;;;5013783;28;20868;-71
2024/03/04 02:27:29;;;;;;;47.93;29.30;;;8.60;99.90;;;;;;5010187;28;20448;-70
2024/03/04 02:29:54;;;;;;;55.80;32.67;;;8.60;99.90;;;;;;5012113;28;20722;-71
2024/03/04 02:32:21;;;;;;;55.80;34.30;;;8.60;99.90;;;;;;5014115;28;20418;-69
2024/03/04 02:34:49;;;;;;;55.43;31.57;;;8.60;99.90;;;;;;5007088;28;20210;-70
2024/03/04 02:37:15;;;;;;;55.40;31.97;;;8.60;99.90;;;;;;5015835;28;20446;-70
2024/03/04 02:39:42;;;;;;;54.67;33.03;;;8.60;99.90;;;;;;5017536;28;20414;-70
2024/03/04 02:42:08;;;;;;;57.40;33.03;;;8.60;99.90;;;;;;5017388;28;20493;-69
2024/03/04 02:44:34;;;;;;;56.53;34.10;;;8.60;99.90;;;;;;5017561;28;20429;-70
2024/03/04 02:47:00;;;;;;;54.23;33.90;;;8.60;99.90;;;;;;5017430;28;20265;-70
2024/03/04 02:49:26;;;;;;;51.33;33.50;;;8.60;99.90;;;;;;5012005;28;20434;-69
2024/03/04 02:51:51;;;;;;;54.83;35.03;;;8.60;99.90;;;;;;5016748;28;20468;-71
2024/03/04 02:54:18;;;;;;;52.97;32.70;;;8.60;99.90;;;;;;5017372;28;20428;-70
2024/03/04 02:56:43;;;;;;;54.40;34.87;;;8.60;99.90;;;;;;5017111;28;20199;-69
2024/03/04 02:59:09;;;;;;;55.50;33.70;;;8.60;99.90;;;;;;5017409;28;20960;-70
2024/03/04 03:01:35;;;;;;;53.10;33.73;;;8.60;99.90;;;;;;4996884;28;20199;-70
2024/03/04 03:04:00;;;;;;;46.13;29.40;;;8.60;99.90;;;;;;5011018;28;20310;-69
2024/03/04 03:06:28;;;;;;;47.30;31.60;;;8.60;99.90;;;;;;5017097;28;20215;-70
2024/03/04 03:08:57;;;;;;;48.63;31.10;;;8.60;99.90;;;;;;5016717;28;20263;-68
2024/03/04 03:11:23;;;;;;;48.63;30.77;;;8.60;99.90;;;;;;5016685;28;20857;-69
2024/03/04 03:13:49;;;;;;;41.70;29.33;;;8.70;99.90;;;;;;5016730;28;20469;-70
2024/03/04 03:16:21;;;;;;;45.20;31.07;;;8.70;99.90;;;;;;5016793;28;20458;-71
2024/03/04 03:18:48;;;;;;;45.73;30.93;;;8.60;99.90;;;;;;5011362;28;20274;-70
2024/03/04 03:21:14;;;;;;;53.33;34.43;;;8.70;99.90;;;;;;5017098;28;20904;-70
2024/03/04 03:23:46;;;;;;;49.70;32.70;;;8.70;99.90;;;;;;5015492;28;20418;-69
2024/03/04 03:26:12;;;;;;;42.83;28.03;;;8.70;99.90;;;;;;5016361;28;20444;-69
2024/03/04 03:28:39;;;;;;;42.83;28.03;;;8.60;99.90;;;;;;5016084;28;20426;-69
2024/03/04 03:31:04;;;;;;;47.80;31.93;;;8.70;99.90;;;;;;5016339;28;20191;-70
2024/03/04 03:33:30;;;;;;;54.27;32.97;;;8.60;99.90;;;;;;5011650;28;20513;-69
2024/03/04 03:35:55;;;;;;;54.10;32.93;;;8.70;99.90;;;;;;5016631;28;20218;-69
2024/03/04 03:38:21;;;;;;;52.43;33.33;;;8.70;99.90;;;;;;5016544;28;20179;-69
2024/03/04 03:40:46;;;;;;;45.33;29.77;;;8.70;99.90;;;;;;5016406;28;20257;-71
2024/03/04 03:43:12;;;;;;;46.90;30.67;;;8.60;99.90;;;;;;5016379;28;20191;-69
2024/03/04 03:45:38;;;;;;;42.10;28.53;;;8.60;99.90;;;;;;5016422;28;20191;-69
2024/03/04 03:48:04;;;;;;;44.80;30.63;;;8.60;99.90;;;;;;5014184;28;20191;-71
2024/03/04 03:50:30;;;;;;;42.97;29.60;;;8.60;99.90;;;;;;5014597;28;20466;-70
2024/03/04 03:52:55;;;;;;;46.03;29.50;;;8.60;99.90;;;;;;5010014;28;20533;-70
2024/03/04 03:55:21;;;;;;;46.03;30.70;;;8.60;99.90;;;;;;5015816;28;20187;-69
2024/03/04 03:57:46;;;;;;;41.50;30.60;;;8.60;99.90;;;;;;5016069;28;20187;-70
2024/03/04 04:00:13;;;;;;;49.80;33.37;;;8.60;99.90;;;;;;5016172;28;20215;-69
2024/03/04 04:02:39;;;;;;;43.00;27.47;;;8.60;99.90;;;;;;5016154;28;20210;-70
2024/03/04 04:05:05;;;;;;;42.97;30.27;;;8.60;99.90;;;;;;4992391;28;20485;-70
2024/03/04 04:07:30;;;;;;;46.17;28.83;;;8.60;99.90;;;;;;5016091;28;20909;-71
2024/03/04 04:09:56;;;;;;;43.73;29.07;;;8.50;99.90;;;;;;5015884;28;20590;-70
2024/03/04 04:12:21;;;;;;;44.30;29.17;;;8.50;99.90;;;;;;5015604;28;20591;-71
2024/03/04 04:14:48;;;;;;;42.27;28.67;;;8.50;99.90;;;;;;5015871;28;20430;-69
2024/03/04 04:17:14;;;;;;;41.03;29.47;;;8.50;99.90;;;;;;5015798;28;20226;-70
2024/03/04 04:19:40;;;;;;;49.83;30.73;;;8.50;99.90;;;;;;5011977;28;20422;-71
2024/03/04 04:22:05;;;;;;;43.57;29.03;;;8.50;99.90;;;;;;5010725;28;20462;-71
2024/03/04 04:24:31;;;;;;;43.77;29.00;;;8.50;99.90;;;;;;5015692;28;20198;-71
2024/03/04 04:26:57;;;;;;;45.33;29.90;;;8.50;99.90;;;;;;5015578;28;20215;-69
2024/03/04 04:29:23;;;;;;;44.57;29.07;;;8.50;99.90;;;;;;5015620;28;20434;-71
2024/03/04 04:31:49;;;;;;;41.77;28.70;;;8.50;99.90;;;;;;5015428;28;20465;-69
2024/03/04 04:34:14;;;;;;;43.50;30.87;;;8.50;99.90;;;;;;5013273;28;20183;-71
2024/03/04 04:36:50;;;;;;;43.10;28.20;;;8.50;99.90;;;;;;5010819;28;20294;-69
2024/03/04 04:39:16;;;;;;;38.50;27.00;;;8.40;99.90;;;;;;5011852;28;20186;-69
2024/03/04 04:41:43;;;;;;;42.20;27.93;;;8.40;99.90;;;;;;5014807;28;20440;-69
2024/03/04 04:44:09;;;;;;;44.87;28.87;;;8.40;99.90;;;;;;5015852;28;20422;-69
2024/03/04 04:46:37;;;;;;;39.20;26.67;;;8.40;99.90;;;;;;5015392;28;20453;-70
2024/03/04 04:49:03;;;;;;;43.70;29.03;;;8.40;99.90;;;;;;5013120;28;20480;-71
2024/03/04 04:51:28;;;;;;;50.00;32.00;;;8.40;99.90;;;;;;5012948;28;20466;-70
2024/03/04 04:53:54;;;;;;;38.73;25.70;;;8.40;99.90;;;;;;5014270;28;20762;-71
2024/03/04 04:56:19;;;;;;;47.70;28.50;;;8.40;99.90;;;;;;5015030;28;20223;-70
2024/03/04 04:58:45;;;;;;;40.60;28.43;;;8.40;99.90;;;;;;5014738;28;20199;-69
2024/03/04 05:01:11;;;;;;;43.30;27.87;;;8.40;99.90;;;;;;5015440;28;20562;-70
2024/03/04 05:03:36;;;;;;;46.37;29.60;;;8.40;99.90;;;;;;4985343;28;20184;-70
2024/03/04 05:06:03;;;;;;;44.80;27.20;;;8.30;99.90;;;;;;5015035;28;20206;-70
2024/03/04 05:08:29;;;;;;;42.53;28.87;;;8.30;99.90;;;;;;5017003;28;20242;-70
2024/03/04 05:10:54;;;;;;;47.37;30.23;;;8.30;99.90;;;;;;5017479;28;20426;-70
2024/03/04 05:13:23;;;;;;;48.00;30.43;;;8.30;99.90;;;;;;5018037;28;20194;-70
2024/03/04 05:15:52;;;;;;;42.10;26.30;;;8.30;99.90;;;;;;5017709;28;20218;-70
2024/03/04 05:18:18;;;;;;;42.10;26.53;;;8.30;99.90;;;;;;5017393;28;20431;-70
2024/03/04 05:20:43;;;;;;;45.37;28.97;;;8.30;99.90;;;;;;5020709;28;20465;-70
2024/03/04 05:23:09;;;;;;;41.00;26.00;;;8.30;99.90;;;;;;5018474;28;20191;-72
2024/03/04 05:25:34;;;;;;;37.10;25.30;;;8.30;99.90;;;;;;5021362;28;20237;-70
2024/03/04 05:28:00;;;;;;;40.10;25.50;;;8.30;99.90;;;;;;4997530;28;20191;-71
2024/03/04 05:30:25;;;;;;;34.23;24.97;;;8.30;99.90;;;;;;5023265;28;20199;-71
2024/03/04 05:32:52;;;;;;;41.70;27.27;;;8.30;99.90;;;;;;5022270;28;21041;-71
2024/03/04 05:35:17;;;;;;;36.93;25.70;;;8.30;99.90;;;;;;5019422;28;20194;-71
2024/03/04 05:37:43;;;;;;;40.07;26.07;;;8.30;99.90;;;;;;5021977;28;20505;-71
2024/03/04 05:40:14;;;;;;;39.33;27.33;;;8.30;99.90;;;;;;5022020;28;20199;-73
2024/03/04 05:42:41;;;;;;;36.57;25.33;;;8.30;99.90;;;;;;5018616;28;20210;-72
2024/03/04 05:45:10;;;;;;;43.50;25.20;;;8.30;99.90;;;;;;5018924;28;20429;-71
2024/03/04 05:47:36;;;;;;;34.37;25.43;;;8.40;99.90;;;;;;5020308;28;20968;-72
2024/03/04 05:50:05;;;;;;;37.80;23.67;;;8.40;99.90;;;;;;5011354;28;20475;-70
2024/03/04 05:52:31;;;;;;;32.30;20.90;;;8.40;99.90;;;;;;5016205;28;20198;-72
2024/03/04 05:54:57;;;;;;;28.23;19.53;;;8.40;99.90;;;;;;5019729;28;20425;-71
2024/03/04 05:57:22;;;;;;;34.63;21.23;;;8.40;99.90;;;;;;5019927;28;20449;-72
2024/03/04 05:59:48;;;;;;;30.53;21.97;;;8.40;99.90;;;;;;5018270;28;20175;-72
2024/03/04 06:02:15;;;;;;;32.43;20.13;;;8.40;99.90;;;;;;5017856;28;20210;-72
2024/03/04 06:04:40;;;;;;;22.20;17.67;;;8.40;99.90;;;;;;5012831;28;20199;-71
2024/03/04 06:07:06;;;;;;;23.80;17.50;;;8.50;99.90;;;;;;5018918;28;20476;-72
2024/03/04 06:09:32;;;;;;;22.27;17.13;;;8.40;99.90;;;;;;5017657;28;20191;-72
2024/03/04 06:11:57;;;;;;;29.43;19.07;;;8.50;99.90;;;;;;4994277;28;20202;-70
2024/03/04 06:14:23;;;;;;;22.23;15.03;;;8.40;99.90;;;;;;5021507;28;20195;-72
2024/03/04 06:16:49;;;;;;;21.17;15.77;;;8.40;99.90;;;;;;5023814;28;20233;-72
2024/03/04 06:19:15;;;;;;;20.13;13.63;;;8.40;99.90;;;;;;5019216;28;20629;-70
2024/03/04 06:21:42;;;;;;;22.27;14.63;;;8.40;99.90;;;;;;5022063;28;20486;-71
2024/03/04 06:24:08;;;;;;;20.47;15.60;;;8.40;99.90;;;;;;5000661;28;20202;-71
2024/03/04 06:26:34;;;;;;;23.33;13.90;;;8.40;99.90;;;;;;5025744;28;20445;-73
2024/03/04 06:29:00;;;;;;;24.83;16.07;;;8.40;99.90;;;;;;5025942;28;20765;-71
2024/03/04 06:31:27;;;;;;;22.57;14.30;;;8.40;99.90;;;;;;5025658;28;20889;-75
2024/03/04 06:33:52;;;;;;;21.27;15.00;;;8.40;99.90;;;;;;5024785;28;20242;-72
2024/03/04 06:36:19;;;;;;;22.20;14.00;;;8.40;99.90;;;;;;5027594;28;20449;-72
2024/03/04 06:38:45;;;;;;;24.87;13.27;;;8.40;99.90;;;;;;5005810;28;20461;-74
2024/03/04 06:41:11;;;;;;;16.47;13.13;;;8.40;99.90;;;;;;5027475;28;20461;-71
2024/03/04 06:43:36;;;;;;;14.40;10.40;;;8.40;99.90;;;;;;5024213;28;20414;-72
2024/03/04 06:46:03;;;;;;;13.50;11.00;;;8.40;99.90;;;;;;5023379;28;20211;-72
2024/03/04 06:48:28;;;;;;;14.97;9.67;;;8.30;99.90;;;;;;5024338;28;20194;-74
2024/03/04 06:50:54;;;;;;;16.03;9.33;;;8.40;99.90;;;;;;5006081;28;20931;-72
2024/03/04 06:53:20;;;;;;;16.13;9.33;;;8.30;99.90;;;;;;5020959;28;20191;-73
2024/03/04 06:55:45;;;;;;;13.47;9.50;;;8.40;99.90;;;;;;5025792;28;20633;-72
2024/03/04 06:58:11;;;;;;;13.40;9.63;;;8.40;99.90;;;;;;5025791;28;20199;-72
2024/03/04 07:00:36;;;;;;;10.80;8.43;;;8.40;99.90;;;;;;5027744;28;20195;-74
2024/03/04 07:03:04;;;;;;;19.73;10.30;;;8.40;99.90;;;;;;5025665;28;20171;-71
2024/03/04 07:05:30;;;;;;;12.87;8.90;;;8.40;99.90;;;;;;5023638;28;20202;-72
2024/03/04 07:07:56;;;;;;;10.43;8.13;;;8.40;99.90;;;;;;5026011;28;20453;-71
2024/03/04 07:10:22;;;;;;;17.07;8.53;;;8.40;99.90;;;;;;5025515;28;20425;-76
2024/03/04 07:12:48;;;;;;;15.40;9.60;;;8.40;99.90;;;;;;5024898;28;20179;-70
2024/03/04 07:15:14;;;;;;;13.03;9.33;;;8.40;99.90;;;;;;5026808;28;20442;-74
2024/03/04 07:17:40;;;;;;;13.67;8.40;;;8.40;99.90;;;;;;5025169;28;20557;-71
2024/03/04 07:20:10;;;;;;;12.00;8.00;;;8.40;99.90;;;;;;4994419;28;20570;-71
2024/03/04 07:22:39;;;;;;;10.97;8.20;;;8.50;99.90;;;;;;4980993;28;20230;-73
2024/03/04 07:25:05;;;;;;;8.93;7.57;;;8.50;99.90;;;;;;5022442;28;20422;-72
2024/03/04 07:27:31;;;;;;;11.47;7.30;;;8.50;99.90;;;;;;5022880;28;20457;-72
2024/03/04 07:29:57;;;;;;;9.57;8.07;;;8.50;99.90;;;;;;5022589;28;20597;-73
2024/03/04 07:32:23;;;;;;;14.13;8.03;;;8.50;99.90;;;;;;5023282;28;20537;-72
2024/03/04 07:34:49;;;;;;;15.20;9.37;;;8.50;99.90;;;;;;5012630;28;20203;-73
2024/03/04 07:37:15;;;;;;;13.50;9.00;;;8.50;99.90;;;;;;5022681;28;20241;-72
2024/03/04 07:39:41;;;;;;;11.07;7.60;;;8.60;99.90;;;;;;4997652;28;20229;-74
2024/03/04 07:42:06;;;;;;;12.27;9.10;;;8.60;99.90;;;;;;5021602;28;20481;-72
2024/03/04 07:44:39;;;;;;;13.93;10.53;;;8.60;99.90;;;;;;5017037;28;20199;-73
2024/03/04 07:47:05;;;;;;;12.10;7.93;;;8.60;99.90;;;;;;5011848;28;20491;-74
2024/03/04 07:49:31;;;;;;;13.10;8.80;;;8.70;99.90;;;;;;5010354;28;20442;-72
2024/03/04 07:51:57;;;;;;;12.00;8.70;;;8.80;99.90;;;;;;5020094;28;20473;-74
2024/03/04 07:54:23;;;;;;;12.93;7.97;;;8.90;99.90;;;;;;5018938;28;20183;-72
2024/03/04 07:56:49;;;;;;;12.03;7.47;;;8.90;99.90;;;;;;5004129;28;20454;-74
2024/03/04 07:59:15;;;;;;;15.80;8.33;;;9.00;99.90;;;;;;5025361;28;20205;-73
2024/03/04 08:01:49;;;;;;;13.20;9.03;;;9.10;99.90;;;;;;5023256;28;20269;-75
2024/03/04 08:04:15;;;;;;;12.03;7.83;;;9.20;99.90;;;;;;4990605;28;20179;-72
2024/03/04 08:06:41;;;;;;;11.37;6.67;;;9.20;99.90;;;;;;5019730;28;20513;-74
2024/03/04 08:09:07;;;;;;;10.97;7.37;;;9.30;99.90;;;;;;5021562;28;20411;-72
2024/03/04 08:11:33;;;;;;;11.90;7.90;;;9.30;99.90;;;;;;4978490;28;20199;-71
2024/03/04 08:14:00;;;;;;;9.40;7.13;;;9.30;99.90;;;;;;4989903;28;20443;-73
2024/03/04 08:16:25;;;;;;;10.80;6.57;;;9.30;99.90;;;;;;4968924;28;20475;-74
2024/03/04 08:18:51;;;;;;;12.90;7.70;;;9.30;99.90;;;;;;5005339;28;20439;-72
2024/03/04 08:21:17;;;;;;;11.40;7.93;;;9.20;99.90;;;;;;5020672;28;20309;-74
2024/03/04 08:23:42;;;;;;;10.70;6.93;;;9.20;99.90;;;;;;5019563;28;20279;-72
2024/03/04 08:26:08;;;;;;;7.60;6.10;;;9.20;99.90;;;;;;5023177;28;20206;-76
2024/03/04 08:28:34;;;;;;;10.23;8.20;;;9.30;99.90;;;;;;5022174;28;20257;-72
2024/03/04 08:31:00;;;;;;;11.27;8.30;;;9.30;99.90;;;;;;5014737;28;20423;-72
2024/03/04 08:33:25;;;;;;;16.20;9.17;;;9.40;99.90;;;;;;5013701;28;20226;-73
2024/03/04 08:35:51;;;;;;;11.30;7.83;;;9.40;99.90;;;;;;5019811;28;20197;-75
2024/03/04 08:38:17;;;;;;;12.07;8.87;;;9.30;99.90;;;;;;4997866;28;20595;-73
2024/03/04 08:40:43;;;;;;;11.53;9.00;;;9.30;99.90;;;;;;4996072;28;20605;-75
2024/03/04 08:43:09;;;;;;;14.07;8.87;;;9.40;99.90;;;;;;5019173;28;20187;-73
2024/03/04 08:45:34;;;;;;;10.20;7.30;;;9.50;99.90;;;;;;5017190;28;20704;-72
2024/03/04 08:48:00;;;;;;;10.87;8.00;;;9.40;99.90;;;;;;5015745;28;20415;-72
2024/03/04 08:50:25;;;;;;;9.53;6.53;;;9.50;99.90;;;;;;5014519;28;20242;-71
2024/03/04 08:52:52;;;;;;;10.70;7.60;;;9.50;99.90;;;;;;5021765;28;20597;-72
2024/03/04 08:55:17;;;;;;;10.20;8.27;;;9.50;99.90;;;;;;4987192;28;20210;-75
2024/03/04 08:57:43;;;;;;;13.40;8.10;;;9.50;99.90;;;;;;5003269;28;20446;-73
2024/03/04 09:00:10;;;;;;;10.17;8.70;;;9.50;99.90;;;;;;5020660;28;20294;-74
2024/03/04 09:02:36;;;;;;;7.60;6.80;;;9.50;99.90;;;;;;5009889;28;20591;-74
2024/03/04 09:05:01;;;;;;;9.43;7.17;;;9.50;99.90;;;;;;5016448;28;20433;-74
2024/03/04 09:07:27;;;;;;;8.80;6.90;;;9.50;99.90;;;;;;5015378;28;20474;-75
2024/03/04 09:09:53;;;;;;;10.80;8.30;;;9.60;99.90;;;;;;5019852;28;20194;-72
2024/03/04 09:12:21;;;;;;;8.33;6.37;;;9.70;99.90;;;;;;5021256;28;20198;-72
2024/03/04 09:14:46;;;;;;;14.53;7.90;;;9.90;99.90;;;;;;5021295;28;20445;-74
2024/03/04 09:17:12;;;;;;;10.67;8.80;;;10.10;99.90;;;;;;5014314;28;20449;-74
2024/03/04 09:19:41;;;;;;;11.20;8.30;;;10.20;99.90;;;;;;5016604;28;20207;-73
2024/03/04 09:22:07;;;;;;;10.00;7.70;;;10.20;99.90;;;;;;5014117;28;20215;-75
2024/03/04 09:24:32;;;;;;;8.30;7.50;;;10.30;99.90;;;;;;5016012;28;20509;-73
2024/03/04 09:26:58;;;;;;;9.73;7.27;;;10.40;99.90;;;;;;5005017;28;20893;-76
2024/03/04 09:29:23;;;;;;;11.57;7.03;;;10.50;99.90;;;;;;5003966;28;20198;-72
2024/03/04 09:31:49;;;;;;;14.07;6.50;;;10.40;99.90;;;;;;5016621;28;20183;-73
2024/03/04 09:34:16;;;;;;;10.13;6.70;;;10.50;99.90;;;;;;4997773;28;20291;-72
2024/03/04 09:36:42;;;;;;;8.10;6.60;;;10.50;99.90;;;;;;5002779;28;20206;-73
2024/03/04 09:39:08;;;;;;;10.43;6.67;;;10.50;99.90;;;;;;4998277;28;20884;-73
2024/03/04 09:41:39;;;;;;;6.70;6.00;;;10.50;99.90;;;;;;5019040;28;20215;-76
2024/03/04 09:44:05;;;;;;;7.37;5.90;;;10.50;99.90;;;;;;5021369;28;20440;-73
2024/03/04 09:46:36;;;;;;;14.30;8.27;;;10.50;99.90;;;;;;5013739;28;20442;-72
2024/03/04 09:49:02;;;;;;;9.23;6.90;;;10.40;99.90;;;;;;5001131;28;20195;-74
2024/03/04 09:51:30;;;;;;;8.40;5.93;;;10.30;99.90;;;;;;4988956;28;20474;-75
2024/03/04 09:54:01;;;;;;;9.30;6.80;;;10.30;99.90;;;;;;5020091;28;20461;-73
2024/03/04 09:56:27;;;;;;;9.63;5.93;;;10.40;99.90;;;;;;5020992;28;20448;-72
2024/03/04 09:58:54;;;;;;;10.60;6.83;;;10.50;99.90;;;;;;5020253;28;20445;-74
2024/03/04 10:01:20;;;;;;;6.00;5.33;;;10.40;99.90;;;;;;5017996;28;20470;-72
2024/03/04 10:03:46;;;;;;;7.87;6.80;;;10.40;99.90;;;;;;4977312;28;20428;-76
2024/03/04 10:06:12;;;;;;;11.47;7.57;;;10.40;99.90;;;;;;4994528;28;20438;-74
2024/03/04 10:08:38;;;;;;;11.47;8.70;;;10.50;99.90;;;;;;4993716;28;20433;-75
2024/03/04 10:11:03;;;;;;;14.73;9.50;;;10.30;99.90;;;;;;5000831;28;20197;-72
2024/03/04 10:13:30;;;;;;;14.90;10.00;;;10.20;99.90;;;;;;4998577;28;20247;-73
2024/03/04 10:15:55;;;;;;;13.80;9.20;;;10.10;99.90;;;;;;5012102;28;20623;-74
2024/03/04 10:18:21;;;;;;;13.10;9.53;;;10.10;99.90;;;;;;5021089;28;20461;-73
2024/03/04 10:20:47;;;;;;;9.93;8.00;;;10.00;99.90;;;;;;4989427;28;20195;-74
2024/03/04 10:23:13;;;;;;;13.00;7.87;;;9.90;99.90;;;;;;5010752;28;20195;-73
2024/03/04 10:25:40;;;;;;;14.27;8.27;;;9.90;99.90;;;;;;5017111;28;20426;-74
2024/03/04 10:28:06;;;;;;;13.93;10.37;;;9.90;99.90;;;;;;5021129;28;20449;-75
2024/03/04 10:30:32;;;;;;;11.40;8.70;;;9.80;99.90;;;;;;5023038;28;20437;-73
2024/03/04 10:33:00;;;;;;;17.60;11.80;;;9.70;99.90;;;;;;5014306;28;20415;-73
2024/03/04 10:35:27;;;;;;;20.50;14.20;;;9.60;99.90;;;;;;4994930;28;20427;-73
2024/03/04 10:37:59;;;;;;;18.83;13.40;;;9.40;99.90;;;;;;4989515;28;20435;-76
2024/03/04 10:40:25;;;;;;;22.23;14.80;;;9.50;99.90;;;;;;5015003;28;20442;-78
2024/03/04 10:42:51;;;;;;;15.53;12.27;;;9.50;99.90;;;;;;4997805;28;20532;-74
2024/03/04 10:45:17;;;;;;;16.73;13.50;;;9.60;99.90;;;;;;5000263;28;20187;-73
2024/03/04 10:47:44;;;;;;;19.73;14.20;;;9.70;99.90;;;;;;5021794;28;20450;-71
2024/03/04 10:50:11;;;;;;;24.73;16.07;;;9.70;99.90;;;;;;4993989;28;20190;-73
2024/03/04 10:52:37;;;;;;;26.67;17.77;;;9.70;99.90;;;;;;5016486;28;20416;-73
2024/03/04 10:55:03;;;;;;;24.10;17.20;;;9.50;99.90;;;;;;4996108;28;20481;-74
2024/03/04 10:57:30;;;;;;;19.77;15.67;;;9.50;99.90;;;;;;4995600;28;20449;-74
2024/03/04 10:59:58;;;;;;;23.40;17.00;;;9.40;99.90;;;;;;5021933;28;20480;-76
2024/03/04 11:02:33;;;;;;;21.30;16.90;;;9.40;99.90;;;;;;4994410;28;20834;-74
2024/03/04 11:05:01;;;;;;;28.00;16.97;;;9.40;99.90;;;;;;5015288;28;20417;-74
2024/03/04 11:07:31;;;;;;;16.50;13.30;;;9.30;99.90;;;;;;4993195;28;20459;-74
2024/03/04 11:10:00;;;;;;;19.53;13.37;;;9.30;99.90;;;;;;5025266;28;20421;-74
2024/03/04 11:12:31;;;;;;;16.50;13.43;;;9.30;99.90;;;;;;5019729;28;20710;-73
2024/03/04 11:15:07;;;;;;;16.57;14.10;;;9.30;99.90;;;;;;4999882;28;20526;-72
2024/03/04 11:17:35;;;;;;;34.10;23.87;;;9.30;99.90;;;;;;5023045;28;20454;-75
2024/03/04 11:20:05;;;;;;;27.17;21.67;;;9.30;99.90;;;;;;5017820;28;20465;-72
2024/03/04 11:22:31;;;;;;;26.20;16.67;;;9.30;99.90;;;;;;5023650;28;20485;-76
2024/03/04 11:24:57;;;;;;;22.90;17.07;;;9.30;99.90;;;;;;4978300;28;20415;-75
2024/03/04 11:27:24;;;;;;;18.07;14.47;;;9.30;99.90;;;;;;5025432;28;20436;-74
2024/03/04 11:29:50;;;;;;;16.43;12.03;;;9.30;99.90;;;;;;5022444;28;20517;-77
2024/03/04 11:32:26;;;;;;;16.50;13.13;;;9.20;99.90;;;;;;5000011;28;20714;-75
2024/03/04 11:34:59;;;;;;;15.73;12.60;;;9.20;99.90;;;;;;5015813;28;20791;-74
2024/03/04 11:37:29;;;;;;;15.37;12.40;;;9.20;99.90;;;;;;5023399;28;20454;-73
2024/03/04 11:39:55;;;;;;;14.30;12.23;;;9.20;99.90;;;;;;5022612;28;20717;-73
2024/03/04 11:42:34;;;;;;;12.90;11.60;;;9.20;99.90;;;;;;5016869;28;20449;-74
2024/03/04 11:45:01;;;;;;;17.57;13.60;;;9.20;99.90;;;;;;5012330;28;20751;-74
2024/03/04 11:47:30;;;;;;;19.13;12.60;;;9.20;99.90;;;;;;5017255;28;20492;-74
2024/03/04 11:49:57;;;;;;;18.87;15.13;;;9.20;99.90;;;;;;5001475;28;20485;-77
2024/03/04 11:52:24;;;;;;;15.47;11.00;;;9.10;99.90;;;;;;4977118;28;20510;-75
2024/03/04 11:54:50;;;;;;;12.47;10.37;;;9.20;99.90;;;;;;5018059;28;20414;-76
2024/03/04 11:57:17;;;;;;;15.60;10.90;;;9.20;99.90;;;;;;4991406;28;20463;-73
2024/03/04 12:00:09;;;;;;;18.23;10.30;;;9.20;99.90;;;;;;5017904;28;20426;-74
2024/03/04 12:02:37;;;;;;;14.43;8.80;;;9.30;99.90;;;;;;5010476;28;20770;-76
2024/03/04 12:05:03;;;;;;;11.87;8.40;;;9.30;99.90;;;;;;5021821;28;20430;-75
2024/03/04 12:07:30;;;;;;;9.97;8.97;;;9.40;99.90;;;;;;5024180;28;20581;-76
2024/03/04 12:10:05;;;;;;;32.57;10.80;;;9.50;99.90;;;;;;5026753;28;20433;-75
2024/03/04 12:12:31;;;;;;;9.37;8.10;;;9.50;99.90;;;;;;4994634;28;20433;-74
2024/03/04 12:14:57;;;;;;;11.63;9.03;;;9.60;99.90;;;;;;5012874;28;20434;-76
2024/03/04 12:17:22;;;;;;;9.20;8.20;;;9.70;99.90;;;;;;5005442;28;20465;-76
2024/03/04 12:19:55;;;;;;;11.83;7.60;;;9.70;99.90;;;;;;5024586;28;20336;-76
2024/03/04 12:22:28;;;;;;;10.87;8.63;;;9.80;99.90;;;;;;5023589;28;20282;-76
2024/03/04 12:25:04;;;;;;;10.27;6.80;;;9.90;99.90;;;;;;5005338;28;20966;-76
2024/03/04 12:27:30;;;;;;;7.00;4.87;;;9.90;99.90;;;;;;5022911;28;20488;-72
2024/03/04 12:30:17;;;;;;;7.20;5.50;;;10.00;99.90;;;;;;4983887;28;20455;-76
2024/03/04 12:32:48;;;;;;;10.10;5.33;;;10.10;99.90;;;;;;4990903;28;20477;-75
2024/03/04 12:35:22;;;;;;;6.90;4.60;;;10.10;99.90;;;;;;4992830;28;20506;-76
2024/03/04 12:37:50;;;;;;;6.97;4.83;;;10.10;99.90;;;;;;4983271;28;20890;-77